createdAt,value
2022-11-23T00:01:15.953Z,98896.31
2022-11-23T00:03:47.858Z,98894.56
2022-11-23T00:06:14.480Z,98890.50
2022-11-23T00:08:43.506Z,98886.25
2022-11-23T00:11:12.410Z,98887.09
2022-11-23T00:13:41.314Z,98884.53
2022-11-23T00:16:15.737Z,98886.34
2022-11-23T00:18:45.560Z,98899.13
2022-11-23T00:21:15.204Z,98896.53
2022-11-23T00:23:41.981Z,98888.84
2022-11-23T00:26:11.178Z,98888.09
2022-11-23T00:28:40.785Z,98889.66
2022-11-23T00:31:09.057Z,98888.09
2022-11-23T00:33:42.899Z,98886.25
2022-11-23T00:36:17.668Z,98879.47
2022-11-23T00:38:47.725Z,98884.41
2022-11-23T00:41:15.381Z,98887.00
2022-11-23T00:43:42.135Z,98882.53
2022-11-23T00:46:19.082Z,98882.63
2022-11-23T00:48:46.692Z,98886.13
2022-11-23T00:51:14.633Z,98882.78
2022-11-23T00:53:41.195Z,98890.44
2022-11-23T00:56:07.943Z,98881.94
2022-11-23T00:58:34.716Z,98870.88
2022-11-23T01:01:03.731Z,98871.66
2022-11-23T01:03:32.402Z,98866.38
2022-11-23T01:06:02.127Z,98859.56
2022-11-23T01:08:28.634Z,98871.44
2022-11-23T01:11:00.573Z,98872.16
2022-11-23T01:13:27.302Z,98876.13
2022-11-23T01:15:56.311Z,98877.94
2022-11-23T01:18:23.049Z,98867.75
2022-11-23T01:20:49.549Z,98863.50
2022-11-23T01:23:20.459Z,98866.97
2022-11-23T01:25:47.229Z,98865.25
2022-11-23T01:28:16.130Z,98864.22
2022-11-23T01:30:42.922Z,98859.09
2022-11-23T01:33:09.449Z,98849.72
2022-11-23T01:35:38.524Z,98853.66
2022-11-23T01:38:05.255Z,98859.66
2022-11-23T01:40:33.018Z,98863.09
2022-11-23T01:43:00.115Z,98850.41
2022-11-23T01:45:38.999Z,98851.38
2022-11-23T01:48:16.793Z,98849.66
2022-11-23T01:50:47.231Z,98841.84
2022-11-23T01:53:13.873Z,98842.75
2022-11-23T01:55:40.410Z,98842.75
2022-11-23T01:58:10.562Z,98832.28
2022-11-23T02:00:40.030Z,98839.13
2022-11-23T02:03:08.214Z,98847.81
2022-11-23T02:05:38.951Z,98829.06
2022-11-23T02:08:05.793Z,98834.34
2022-11-23T02:10:32.444Z,98833.69
2022-11-23T02:13:08.687Z,98827.63
2022-11-23T02:15:35.338Z,98842.88
2022-11-23T02:18:04.864Z,98830.00
2022-11-23T02:20:34.127Z,98831.88
2022-11-23T02:23:09.740Z,98831.13
2022-11-23T02:25:45.557Z,98831.88
2022-11-23T02:28:15.037Z,98827.44
2022-11-23T02:30:41.650Z,98827.44
2022-11-23T02:33:10.524Z,98837.75
2022-11-23T02:35:46.739Z,98838.63
2022-11-23T02:38:13.266Z,98838.69
2022-11-23T02:40:42.110Z,98836.09
2022-11-23T02:43:08.658Z,98832.69
2022-11-23T02:45:43.798Z,98825.63
2022-11-23T02:48:12.798Z,98819.59
2022-11-23T02:50:42.348Z,98828.94
2022-11-23T02:53:11.874Z,98852.16
2022-11-23T02:55:38.419Z,98839.38
2022-11-23T02:58:05.992Z,98836.19
2022-11-23T03:00:32.960Z,98832.06
2022-11-23T03:03:00.705Z,98830.19
2022-11-23T03:05:27.308Z,98825.00
2022-11-23T03:07:56.285Z,98829.31
2022-11-23T03:10:25.370Z,98826.56
2022-11-23T03:12:54.369Z,98830.97
2022-11-23T03:15:21.026Z,98825.88
2022-11-23T03:17:47.662Z,98826.84
2022-11-23T03:20:18.542Z,98827.69
2022-11-23T03:22:48.626Z,98834.59
2022-11-23T03:25:17.135Z,98847.25
2022-11-23T03:27:45.964Z,98830.97
2022-11-23T03:30:12.874Z,98815.53
2022-11-23T03:32:39.412Z,98829.16
2022-11-23T03:35:06.257Z,98827.63
2022-11-23T03:37:34.646Z,98825.94
2022-11-23T03:40:01.829Z,98831.19
2022-11-23T03:42:48.330Z,98838.16
2022-11-23T03:45:14.957Z,98836.56
2022-11-23T03:47:41.562Z,98823.63
2022-11-23T03:50:08.306Z,98832.22
2022-11-23T03:55:03.444Z,98842.41
2022-11-23T03:57:33.314Z,98831.25
2022-11-23T04:00:02.385Z,98835.44
2022-11-23T04:02:39.782Z,98823.44
2022-11-23T04:05:13.273Z,98827.81
2022-11-23T04:08:00.145Z,98819.44
2022-11-23T04:10:29.241Z,98830.44
2022-11-23T04:13:21.806Z,98825.13
2022-11-23T04:15:49.289Z,98833.66
2022-11-23T04:18:15.898Z,98841.47
2022-11-23T04:20:42.470Z,98827.84
2022-11-23T04:23:13.548Z,98821.50
2022-11-23T04:25:41.369Z,98829.75
2022-11-23T04:28:10.516Z,98822.19
2022-11-23T04:30:37.518Z,98831.63
2022-11-23T04:33:04.362Z,98821.38
2022-11-23T04:35:34.260Z,98845.09
2022-11-23T04:38:03.940Z,98851.16
2022-11-23T04:40:31.805Z,98841.09
2022-11-23T04:43:07.043Z,98835.28
2022-11-23T04:45:37.795Z,98839.00
2022-11-23T04:48:08.993Z,98824.59
2022-11-23T04:50:40.415Z,98832.38
2022-11-23T04:53:08.683Z,98838.28
2022-11-23T04:55:43.927Z,98846.09
2022-11-23T04:58:10.995Z,98846.09
2022-11-23T05:00:37.701Z,98849.63
2022-11-23T05:03:05.260Z,98840.28
2022-11-23T05:05:34.363Z,98836.00
2022-11-23T05:08:02.450Z,98841.16
2022-11-23T05:10:47.722Z,98842.09
2022-11-23T05:13:16.771Z,98839.34
2022-11-23T05:15:44.546Z,98849.53
2022-11-23T05:18:14.502Z,98852.22
2022-11-23T05:20:41.637Z,98847.09
2022-11-23T05:23:08.308Z,98843.53
2022-11-23T05:25:41.009Z,98848.94
2022-11-23T05:31:13.555Z,98823.41
2022-11-23T05:33:42.802Z,98819.97
2022-11-23T05:36:09.650Z,98817.31
2022-11-23T05:38:38.526Z,98814.47
2022-11-23T05:41:11.030Z,98818.78
2022-11-23T05:43:40.407Z,98819.59
2022-11-23T05:46:12.038Z,98816.16
2022-11-23T05:48:39.069Z,98807.78
2022-11-23T05:51:10.105Z,98806.84
2022-11-23T05:53:41.426Z,98810.25
2022-11-23T05:56:29.371Z,98812.81
2022-11-23T05:59:05.452Z,98811.03
2022-11-23T06:01:35.092Z,98819.69
2022-11-23T06:04:03.850Z,98810.31
2022-11-23T06:06:38.287Z,98808.53
2022-11-23T06:09:07.191Z,98805.13
2022-11-23T06:11:39.773Z,98818.06
2022-11-23T06:14:14.462Z,98829.06
2022-11-23T06:16:44.041Z,98850.59
2022-11-23T06:19:30.975Z,98840.38
2022-11-23T06:21:58.667Z,98840.47
2022-11-23T06:24:27.030Z,98833.78
2022-11-23T06:27:18.236Z,98830.44
2022-11-23T06:29:50.529Z,98832.25
2022-11-23T06:32:18.180Z,98830.47
2022-11-23T06:34:47.037Z,98839.19
2022-11-23T06:37:16.096Z,98850.38
2022-11-23T06:39:46.502Z,98850.44
2022-11-23T06:45:00.143Z,98846.34
2022-11-23T06:47:32.092Z,98851.59
2022-11-23T06:49:58.634Z,98848.22
2022-11-23T06:52:31.474Z,98845.78
2022-11-23T06:54:58.013Z,98848.41
2022-11-23T06:57:25.266Z,98844.19
2022-11-23T06:59:53.068Z,98835.78
2022-11-23T07:02:28.259Z,98851.38
2022-11-23T07:04:57.452Z,98847.16
2022-11-23T07:07:24.929Z,98843.84
2022-11-23T07:10:05.449Z,98849.13
2022-11-23T07:12:40.754Z,98857.47
2022-11-23T07:15:10.362Z,98866.03
2022-11-23T07:17:38.906Z,98867.88
2022-11-23T07:20:05.969Z,98862.88
2022-11-23T07:22:32.556Z,98857.03
2022-11-23T07:24:59.139Z,98864.00
2022-11-23T07:27:28.345Z,98873.44
2022-11-23T07:29:57.364Z,98863.22
2022-11-23T07:32:24.086Z,98869.63
2022-11-23T07:34:50.711Z,98862.63
2022-11-23T07:37:17.262Z,98862.84
2022-11-23T07:39:57.528Z,98856.06
2022-11-23T07:42:38.336Z,98859.53
2022-11-23T07:45:13.447Z,98854.38
2022-11-23T07:47:44.187Z,98864.63
2022-11-23T07:50:13.519Z,98863.06
2022-11-23T07:52:40.922Z,98867.44
2022-11-23T07:55:08.082Z,98870.72
2022-11-23T07:57:34.613Z,98874.84
2022-11-23T08:00:01.166Z,98873.81
2022-11-23T08:02:30.324Z,98867.03
2022-11-23T08:04:56.931Z,98869.69
2022-11-23T08:07:26.538Z,98875.59
2022-11-23T08:09:53.163Z,98875.88
2022-11-23T08:12:19.728Z,98865.88
2022-11-23T08:14:46.219Z,98872.78
2022-11-23T08:17:12.812Z,98871.19
2022-11-23T08:19:39.464Z,98873.06
2022-11-23T08:22:05.976Z,98880.09
2022-11-23T08:24:32.995Z,98880.25
2022-11-23T08:26:59.751Z,98883.06
2022-11-23T08:29:26.305Z,98887.50
2022-11-23T08:31:55.237Z,98879.78
2022-11-23T08:34:24.297Z,98878.16
2022-11-23T08:36:50.898Z,98885.81
2022-11-23T08:39:19.483Z,98882.44
2022-11-23T08:41:46.037Z,98884.31
2022-11-23T08:44:12.639Z,98880.56
2022-11-23T08:46:41.710Z,98875.31
2022-11-23T08:49:08.444Z,98880.34
2022-11-23T08:51:37.822Z,98878.00
2022-11-23T08:54:04.395Z,98885.56
2022-11-23T08:56:30.979Z,98897.66
2022-11-23T08:59:00.383Z,98889.94
2022-11-23T09:01:27.309Z,98893.94
2022-11-23T09:03:54.951Z,98896.44
2022-11-23T09:06:27.042Z,98902.63
2022-11-23T09:08:53.954Z,98901.13
2022-11-23T09:11:22.630Z,98897.84
2022-11-23T09:13:49.304Z,98897.84
2022-11-23T09:16:15.856Z,98893.56
2022-11-23T09:18:44.766Z,98894.53
2022-11-23T09:21:11.405Z,98898.69
2022-11-23T09:23:38.018Z,98900.28
2022-11-23T09:26:04.904Z,98887.22
2022-11-23T09:28:32.267Z,98896.03
2022-11-23T09:30:58.987Z,98891.75
2022-11-23T09:33:30.605Z,98889.94
2022-11-23T09:36:01.022Z,98894.81
2022-11-23T09:38:51.632Z,98893.00
2022-11-23T09:41:33.524Z,98892.38
2022-11-23T09:44:00.113Z,98890.75
2022-11-23T09:46:55.857Z,98886.44
2022-11-23T09:49:28.331Z,98893.31
2022-11-23T09:51:55.116Z,98889.78
2022-11-23T09:54:30.431Z,98891.75
2022-11-23T09:57:01.959Z,98882.00
2022-11-23T09:59:32.492Z,98880.19
2022-11-23T10:02:01.757Z,98881.22
2022-11-23T10:04:34.076Z,98890.13
2022-11-23T10:07:21.192Z,98885.91
2022-11-23T10:09:58.039Z,98887.81
2022-11-23T10:12:24.544Z,98892.28
2022-11-23T10:15:20.617Z,98894.06
2022-11-23T10:17:53.593Z,98887.41
2022-11-23T10:20:29.377Z,98880.44
2022-11-23T10:22:59.917Z,98884.75
2022-11-23T10:25:27.890Z,98886.16
2022-11-23T10:27:55.354Z,98882.50
2022-11-23T10:30:24.286Z,98882.22
2022-11-23T10:32:52.963Z,98878.06
2022-11-23T10:35:25.519Z,98872.97
2022-11-23T10:37:53.668Z,98879.06
2022-11-23T10:40:27.481Z,98876.78
2022-11-23T10:43:00.437Z,98874.31
2022-11-23T10:45:27.678Z,98885.59
2022-11-23T10:47:55.361Z,98889.97
2022-11-23T10:50:24.382Z,98885.00
2022-11-23T10:52:58.537Z,98889.13
2022-11-23T10:55:26.805Z,98888.31
2022-11-23T10:57:53.701Z,98888.47
2022-11-23T11:00:23.679Z,98889.47
2022-11-23T11:02:57.203Z,98885.94
2022-11-23T11:05:46.265Z,98882.38
2022-11-23T11:08:14.155Z,98880.00
2022-11-23T11:10:50.768Z,98872.09
2022-11-23T11:13:37.643Z,98873.78
2022-11-23T11:16:08.844Z,98879.81
2022-11-23T11:18:36.244Z,98878.06
2022-11-23T11:21:21.225Z,98874.63
2022-11-23T11:23:55.216Z,98869.16
2022-11-23T11:26:27.094Z,98869.09
2022-11-23T11:28:54.810Z,98877.78
2022-11-23T11:31:42.607Z,98874.31
2022-11-23T11:34:15.145Z,98872.78
2022-11-23T11:36:45.566Z,98873.69
2022-11-23T11:39:19.581Z,98871.13
2022-11-23T11:41:49.162Z,98867.69
2022-11-23T11:44:20.418Z,98872.25
2022-11-23T11:46:50.382Z,98873.78
2022-11-23T11:49:18.515Z,98874.78
2022-11-23T11:52:03.977Z,98868.69
2022-11-23T11:54:46.785Z,98879.13
2022-11-23T11:57:18.289Z,98875.63
2022-11-23T11:59:52.950Z,98873.97
2022-11-23T12:02:30.163Z,98880.13
2022-11-23T12:05:09.063Z,98871.53
2022-11-23T12:07:55.942Z,98871.69
2022-11-23T12:10:26.529Z,98886.47
2022-11-23T12:12:53.074Z,98879.63
2022-11-23T12:18:23.778Z,98880.31
2022-11-23T12:20:50.423Z,98883.88
2022-11-23T12:23:25.504Z,98877.84
2022-11-23T12:26:01.271Z,98875.13
2022-11-23T12:28:32.214Z,98877.81
2022-11-23T12:31:02.173Z,98876.97
2022-11-23T12:33:32.847Z,98879.59
2022-11-23T12:35:59.434Z,98877.84
2022-11-23T12:38:35.253Z,98875.41
2022-11-23T12:41:04.839Z,98875.28
2022-11-23T12:43:45.761Z,98864.03
2022-11-23T12:46:18.527Z,98872.63
2022-11-23T12:49:03.536Z,98865.06
2022-11-23T12:51:48.582Z,98853.81
2022-11-23T12:54:27.729Z,98868.25
2022-11-23T12:57:17.701Z,98870.97
2022-11-23T12:59:49.046Z,98865.88
2022-11-23T13:02:22.875Z,98869.88
2022-11-23T13:04:55.621Z,98867.38
2022-11-23T13:07:35.398Z,98871.53
2022-11-23T13:10:11.923Z,98870.06
2022-11-23T13:12:44.862Z,98859.84
2022-11-23T13:15:17.519Z,98871.09
2022-11-23T13:17:47.477Z,98872.88
2022-11-23T13:20:32.830Z,98878.13
2022-11-23T13:22:59.425Z,98876.59
2022-11-23T13:25:29.385Z,98879.22
2022-11-23T13:27:59.792Z,98888.59
2022-11-23T13:33:26.615Z,98885.94
2022-11-23T13:36:02.138Z,98895.16
2022-11-23T13:38:39.965Z,98897.59
2022-11-23T13:41:30.494Z,98887.38
2022-11-23T13:44:12.112Z,98899.53
2022-11-23T13:46:41.484Z,98889.13
2022-11-23T13:49:27.976Z,98896.94
2022-11-23T13:52:07.513Z,98899.66
2022-11-23T13:54:36.679Z,98892.75
2022-11-23T13:57:05.786Z,98896.94
2022-11-23T13:59:33.439Z,98891.84
2022-11-23T14:02:08.892Z,98897.94
2022-11-23T14:04:39.485Z,98894.53
2022-11-23T14:07:09.087Z,98887.72
2022-11-23T14:09:37.057Z,98892.94
2022-11-23T14:12:14.251Z,98897.31
2022-11-23T14:14:40.741Z,98894.84
2022-11-23T14:17:23.841Z,98895.91
2022-11-23T14:19:53.454Z,98894.91
2022-11-23T14:22:28.089Z,98898.47
2022-11-23T14:25:16.520Z,98893.13
2022-11-23T14:28:06.353Z,98895.66
2022-11-23T14:30:41.444Z,98898.19
2022-11-23T14:33:26.767Z,98900.69
2022-11-23T14:36:20.037Z,98894.78
2022-11-23T14:38:55.059Z,98902.59
2022-11-23T14:41:24.890Z,98905.13
2022-11-23T14:43:51.468Z,98906.69
2022-11-23T14:46:19.936Z,98909.19
2022-11-23T14:48:49.347Z,98910.13
2022-11-23T14:51:27.966Z,98916.13
2022-11-23T14:53:57.376Z,98916.28
2022-11-23T14:56:34.578Z,98911.28
2022-11-23T14:59:02.846Z,98914.78
2022-11-23T15:01:31.870Z,98922.56
2022-11-23T15:04:10.718Z,98924.28
2022-11-23T15:06:43.889Z,98918.19
2022-11-23T15:09:15.752Z,98922.56
2022-11-23T15:11:44.727Z,98928.66
2022-11-23T15:14:25.966Z,98927.72
2022-11-23T15:16:52.815Z,98935.38
2022-11-23T15:19:23.734Z,98929.25
2022-11-23T15:21:50.382Z,98932.44
2022-11-23T15:24:21.957Z,98933.97
2022-11-23T15:26:50.764Z,98932.44
2022-11-23T15:29:29.551Z,98932.63
2022-11-23T15:32:22.302Z,98930.78
2022-11-23T15:34:45.381Z,98934.22
2022-11-23T15:37:11.945Z,98944.72
2022-11-23T15:39:38.458Z,98943.03
2022-11-23T15:42:05.278Z,98944.69
2022-11-23T15:44:35.873Z,98939.59
2022-11-23T15:47:03.572Z,98937.81
2022-11-23T15:49:30.576Z,98933.50
2022-11-23T15:52:02.795Z,98927.41
2022-11-23T15:54:32.453Z,98925.63
2022-11-23T15:56:59.262Z,98936.88
2022-11-23T15:59:32.803Z,98934.16
2022-11-23T16:02:03.941Z,98941.66
2022-11-23T16:04:33.149Z,98946.81
2022-11-23T16:07:07.083Z,98951.19
2022-11-23T16:12:23.278Z,98950.59
2022-11-23T16:14:50.040Z,98951.47
2022-11-23T16:17:16.579Z,98946.31
2022-11-23T16:19:46.825Z,98948.94
2022-11-23T16:22:17.532Z,98952.44
2022-11-23T16:24:44.072Z,98958.41
2022-11-23T16:27:14.285Z,98968.75
2022-11-23T16:29:43.256Z,98968.75
2022-11-23T16:32:25.324Z,98966.28
2022-11-23T16:34:52.497Z,98965.50
2022-11-23T16:37:19.080Z,98970.84
2022-11-23T16:39:45.638Z,98968.34
2022-11-23T16:42:15.637Z,98970.03
2022-11-23T16:44:43.074Z,98974.44
2022-11-23T16:47:21.252Z,98971.88
2022-11-23T16:49:48.248Z,98973.59
2022-11-23T16:52:17.267Z,98980.41
2022-11-23T16:54:43.849Z,98962.31
2022-11-23T16:57:28.828Z,98970.13
2022-11-23T16:59:57.872Z,98977.75
2022-11-23T17:02:26.828Z,98977.69
2022-11-23T17:04:56.682Z,98981.00
2022-11-23T17:07:23.433Z,98986.06
2022-11-23T17:09:50.057Z,98986.03
2022-11-23T17:12:19.779Z,98991.28
2022-11-23T17:14:49.469Z,98989.53
2022-11-23T17:17:20.642Z,98984.44
2022-11-23T17:19:50.168Z,98987.97
2022-11-23T17:22:19.525Z,98987.94
2022-11-23T17:24:48.954Z,98988.75
2022-11-23T17:27:20.693Z,98992.06
2022-11-23T17:29:47.452Z,98989.56
2022-11-23T17:32:14.274Z,98991.28
2022-11-23T17:34:40.816Z,98996.44
2022-11-23T17:37:09.789Z,98988.72
2022-11-23T17:39:36.522Z,98985.19
2022-11-23T17:42:05.626Z,98993.72
2022-11-23T17:44:35.158Z,98997.91
2022-11-23T17:47:01.682Z,98998.75
2022-11-23T17:49:31.250Z,98997.03
2022-11-23T17:51:58.595Z,98997.94
2022-11-23T17:54:27.545Z,98996.19
2022-11-23T17:56:54.194Z,98990.94
2022-11-23T17:59:20.856Z,98998.63
2022-11-23T18:01:47.804Z,98997.75
2022-11-23T18:04:14.387Z,98996.88
2022-11-23T18:06:40.968Z,98997.53
2022-11-23T18:09:08.834Z,99009.59
2022-11-23T18:11:35.354Z,99004.41
2022-11-23T18:14:03.255Z,99009.53
2022-11-23T18:16:29.859Z,99002.72
2022-11-23T18:18:56.915Z,99007.97
2022-11-23T18:21:23.486Z,99012.19
2022-11-23T18:23:52.543Z,99007.94
2022-11-23T18:26:23.202Z,99007.84
2022-11-23T18:28:52.378Z,99005.28
2022-11-23T18:31:21.299Z,99006.13
2022-11-23T18:33:50.353Z,99007.81
2022-11-23T18:36:16.874Z,99005.19
2022-11-23T18:38:46.776Z,99005.28
2022-11-23T18:41:14.386Z,99013.03
2022-11-23T18:43:43.442Z,99006.16
2022-11-23T18:46:19.617Z,99012.09
2022-11-23T18:48:51.555Z,99012.72
2022-11-23T18:51:20.568Z,99014.59
2022-11-23T18:53:50.988Z,99010.38
2022-11-23T18:56:18.023Z,99015.63
2022-11-23T18:58:45.099Z,99013.19
2022-11-23T19:01:12.722Z,99016.66
2022-11-23T19:03:42.052Z,99015.81
2022-11-23T19:06:09.077Z,99017.63
2022-11-23T19:08:42.005Z,99019.22
2022-11-23T19:11:09.426Z,99010.47
2022-11-23T19:13:37.074Z,99020.84
2022-11-23T19:16:13.638Z,99020.06
2022-11-23T19:18:40.213Z,99016.72
2022-11-23T19:21:13.046Z,99024.59
2022-11-23T19:23:39.575Z,99027.25
2022-11-23T19:26:08.478Z,99029.81
2022-11-23T19:28:37.499Z,99026.41
2022-11-23T19:31:30.684Z,99025.28
2022-11-23T19:33:58.571Z,99033.94
2022-11-23T19:36:25.285Z,99031.34
2022-11-23T19:38:51.934Z,99033.00
2022-11-23T19:41:18.864Z,99037.31
2022-11-23T19:43:52.026Z,99035.56
2022-11-23T19:46:19.061Z,99029.63
2022-11-23T19:48:50.792Z,99034.91
2022-11-23T19:51:19.425Z,99038.38
2022-11-23T19:53:46.620Z,99037.28
2022-11-23T19:56:13.936Z,99039.84
2022-11-23T19:58:42.887Z,99035.56
2022-11-23T20:01:19.547Z,99044.13
2022-11-23T20:03:49.813Z,99047.56
2022-11-23T20:06:26.326Z,99045.69
2022-11-23T20:08:58.655Z,99040.59
2022-11-23T20:11:28.479Z,99039.78
2022-11-23T20:13:55.490Z,99041.47
2022-11-23T20:16:29.761Z,99047.53
2022-11-23T20:19:00.808Z,99045.06
2022-11-23T20:21:30.041Z,99045.13
2022-11-23T20:24:02.787Z,99049.34
2022-11-23T20:26:31.444Z,99060.56
2022-11-23T20:28:58.369Z,99054.59
2022-11-23T20:31:25.840Z,99061.47
2022-11-23T20:33:52.685Z,99057.16
2022-11-23T20:36:21.634Z,99060.44
2022-11-23T20:38:48.853Z,99064.78
2022-11-23T20:41:24.479Z,99060.53
2022-11-23T20:43:52.172Z,99073.44
2022-11-23T20:46:38.216Z,99074.19
2022-11-23T20:49:05.355Z,99076.03
2022-11-23T20:51:34.332Z,99070.91
2022-11-23T20:54:00.904Z,99076.91
2022-11-23T20:56:29.096Z,99082.13
2022-11-23T20:58:59.895Z,99085.38
2022-11-23T21:01:27.798Z,99090.59
2022-11-23T21:03:55.998Z,99094.13
2022-11-23T21:06:22.846Z,99092.50
2022-11-23T21:08:49.574Z,99095.16
2022-11-23T21:11:34.929Z,99100.22
2022-11-23T21:14:12.392Z,99091.53
2022-11-23T21:16:45.908Z,99094.59
2022-11-23T21:19:12.964Z,99105.00
2022-11-23T21:21:44.493Z,99099.94
2022-11-23T21:24:13.545Z,99099.94
2022-11-23T21:26:40.379Z,99098.28
2022-11-23T21:29:11.446Z,99098.34
2022-11-23T21:31:44.595Z,99097.50
2022-11-23T21:34:17.683Z,99101.78
2022-11-23T21:36:44.404Z,99103.53
2022-11-23T21:39:13.440Z,99104.38
2022-11-23T21:41:44.980Z,99111.34
2022-11-23T21:44:13.876Z,99103.53
2022-11-23T21:46:42.985Z,99112.06
2022-11-23T21:49:13.000Z,99111.63
2022-11-23T21:51:39.608Z,99115.88
2022-11-23T21:54:06.938Z,99114.50
2022-11-23T21:56:35.976Z,99113.78
2022-11-23T21:59:02.586Z,99113.97
2022-11-23T22:01:29.802Z,99119.34
2022-11-23T22:04:04.016Z,99119.31
2022-11-23T22:06:30.659Z,99119.38
2022-11-23T22:09:04.908Z,99124.53
2022-11-23T22:11:34.874Z,99121.19
2022-11-23T22:14:07.467Z,99129.91
2022-11-23T22:16:34.752Z,99118.78
2022-11-23T22:19:01.526Z,99127.34
2022-11-23T22:21:31.982Z,99120.50
2022-11-23T22:23:58.833Z,99123.03
2022-11-23T22:26:27.601Z,99126.41
2022-11-23T22:28:54.857Z,99123.78
2022-11-23T22:31:25.113Z,99120.44
2022-11-23T22:33:55.147Z,99122.91
2022-11-23T22:36:24.190Z,99131.53
2022-11-23T22:39:00.835Z,99135.06
2022-11-23T22:41:28.214Z,99133.25
2022-11-23T22:43:57.218Z,99133.16
2022-11-23T22:46:25.219Z,99134.09
2022-11-23T22:48:52.316Z,99138.31
2022-11-23T22:51:22.417Z,99133.06
2022-11-23T22:53:52.868Z,99138.31
2022-11-23T22:56:19.778Z,99140.91
2022-11-23T22:58:46.712Z,99137.47
2022-11-23T23:01:14.166Z,99146.06
2022-11-23T23:03:43.154Z,99146.91
2022-11-23T23:06:15.016Z,99153.81
2022-11-23T23:08:41.664Z,99147.75
2022-11-23T23:11:08.307Z,99164.91
2022-11-23T23:13:34.857Z,99158.19
2022-11-23T23:16:07.477Z,99156.38
2022-11-23T23:18:34.263Z,99165.63
2022-11-23T23:21:04.787Z,99159.59
2022-11-23T23:23:31.757Z,99164.53
2022-11-23T23:25:58.318Z,99164.25
2022-11-23T23:28:25.311Z,99168.50
2022-11-23T23:30:51.849Z,99164.31
2022-11-23T23:33:18.519Z,99172.94
2022-11-23T23:35:45.089Z,99171.22
2022-11-23T23:38:11.599Z,99174.81
2022-11-23T23:40:40.916Z,99169.56
2022-11-23T23:43:09.997Z,99170.34
2022-11-23T23:45:36.595Z,99174.63
2022-11-23T23:48:05.547Z,99175.41
2022-11-23T23:50:35.358Z,99169.47
2022-11-23T23:53:01.918Z,99172.66
2022-11-23T23:55:30.764Z,99179.53
2022-11-23T23:57:59.091Z,99179.72
